map of JOS home
JOS - Airport
Location
City:  Jos, Plateau, Nigeria
Name:Yakubu Gowon Airport
ICAO:DNJO
IATA:JOS

Details
Type:Airport (Aerodrome, Airfield)
Use:Public/Civil
Latitude:938'23"N (9.639828)
Longitude:852'09"E (8.869050)
Datum:WGS 1984
Elevation:4232 ft (1290 m)
Variation:0.27W (WMM2015 magnetic declination)
0.10 annual change
Runways:1
Longest:9845 × 148 ft (3001 × 45 m), paved

Time
Time Zone:UTC+1
Local Time:

Weather
METAR:DNJO 161000Z 07008KT CAVOK 26/01 Q1021
TAF:DNJO 161540Z 1618/1724 18003KT CAVOK
BECMG 1620/1620 09012KT

Related Locations
Nearby:
Farthest:AAU: 12148 mi / 19550 km
Asau, WS

Find:

   beyond  
but within

Other Information
Maps:
NOTAMs:
Links:
Sources:

  
  • flag of Nigeria
  

Sectional Chart

Flight Planning
at skyvector.com

Satellite Image

Google Maps Satellite view

 

Copyright © 2004-2018 Karl L. Swartz. All rights reserved.
The Great Circle Mapper name and logo are trademarks of the Great Circle Mapper.
All other trademarks mentioned herein belong to their respective owners.
Please see credits for attibutions and further copyright information.

  Follow gcmap on Facebook Follow gcmap on Twitter Follow gcmap on Google+ GCmap on LinkedIn

hCard Microformat

Geo Microformat